Alma, Arkansas
Current Conditions -  °F | °C
As of 5:53 AM on Tuesday 27 Jan 2015 (Local Time) from KFSM Reporting Station
Clear Clear  
Wind Chill:   Ceiling: Unl
Heat Index:   Visibility: 10mi
Dew Point:   Wind: 7mph
Humidity: 79%   Direction: 250°WSW
Pressure: 30.1"   Gusts: NA
Location:  35.48°N, 94.22°W
Report Text: KFSM 271153Z 25006KT 10SM CLR 04/01 A3010 RMK AO2 SLP193 T00440011 10083 20011 53017
Loading
Personal Weather Stations






























Interactive Weather Map New forecast layout! Learn more

10-Day Weather Forecast

Advertisements
Track Severe Weather on mobile